sensor_id;sensor_type;location;lat;lon;timestamp;P1;durP1;ratioP1;P2;durP2;ratioP2
79137;SDS011;68544;45.566;10.238;2023-09-19T00:04:42;12.20;;;4.45;;
79137;SDS011;68544;45.566;10.238;2023-09-19T00:09:34;13.35;;;4.80;;
79137;SDS011;68544;45.566;10.238;2023-09-19T00:12:03;8.60;;;4.20;;
79137;SDS011;68544;45.566;10.238;2023-09-19T00:14:32;11.48;;;4.53;;
79137;SDS011;68544;45.566;10.238;2023-09-19T00:17:00;12.95;;;5.00;;
79137;SDS011;68544;45.566;10.238;2023-09-19T00:19:33;10.30;;;4.43;;
79137;SDS011;68544;45.566;10.238;2023-09-19T00:21:59;13.38;;;4.90;;
79137;SDS011;68544;45.566;10.238;2023-09-19T00:26:52;12.50;;;4.40;;
79137;SDS011;68544;45.566;10.238;2023-09-19T00:29:19;9.88;;;3.92;;
79137;SDS011;68544;45.566;10.238;2023-09-19T00:31:44;9.38;;;4.03;;
79137;SDS011;68544;45.566;10.238;2023-09-19T00:36:36;11.98;;;4.28;;
79137;SDS011;68544;45.566;10.238;2023-09-19T00:39:04;9.75;;;4.18;;
79137;SDS011;68544;45.566;10.238;2023-09-19T00:43:56;9.48;;;4.32;;
79137;SDS011;68544;45.566;10.238;2023-09-19T00:48:47;10.93;;;4.15;;
79137;SDS011;68544;45.566;10.238;2023-09-19T00:53:44;13.55;;;5.05;;
79137;SDS011;68544;45.566;10.238;2023-09-19T00:56:11;15.80;;;4.85;;
79137;SDS011;68544;45.566;10.238;2023-09-19T00:58:36;14.18;;;4.78;;
79137;SDS011;68544;45.566;10.238;2023-09-19T01:01:03;11.35;;;4.75;;
79137;SDS011;68544;45.566;10.238;2023-09-19T01:03:32;12.18;;;4.80;;
79137;SDS011;68544;45.566;10.238;2023-09-19T01:05:59;11.23;;;4.43;;
79137;SDS011;68544;45.566;10.238;2023-09-19T01:08:25;12.30;;;4.53;;
79137;SDS011;68544;45.566;10.238;2023-09-19T01:10:55;13.25;;;4.78;;
79137;SDS011;68544;45.566;10.238;2023-09-19T01:29:48;11.82;;;4.25;;
79137;SDS011;68544;45.566;10.238;2023-09-19T01:32:18;12.85;;;4.53;;
79137;SDS011;68544;45.566;10.238;2023-09-19T01:34:50;8.95;;;3.97;;
79137;SDS011;68544;45.566;10.238;2023-09-19T01:37:23;10.05;;;4.35;;
79137;SDS011;68544;45.566;10.238;2023-09-19T01:39:53;9.85;;;4.53;;
79137;SDS011;68544;45.566;10.238;2023-09-19T01:42:27;10.77;;;4.38;;
79137;SDS011;68544;45.566;10.238;2023-09-19T01:47:46;14.32;;;4.63;;
79137;SDS011;68544;45.566;10.238;2023-09-19T01:50:26;7.72;;;4.15;;
79137;SDS011;68544;45.566;10.238;2023-09-19T01:53:07;9.25;;;4.38;;
79137;SDS011;68544;45.566;10.238;2023-09-19T01:55:41;14.48;;;4.60;;
79137;SDS011;68544;45.566;10.238;2023-09-19T02:00:40;12.97;;;5.10;;
79137;SDS011;68544;45.566;10.238;2023-09-19T02:03:08;14.27;;;5.32;;
79137;SDS011;68544;45.566;10.238;2023-09-19T02:05:35;13.45;;;5.10;;
79137;SDS011;68544;45.566;10.238;2023-09-19T02:08:00;13.45;;;5.20;;
79137;SDS011;68544;45.566;10.238;2023-09-19T02:10:25;13.07;;;4.82;;
79137;SDS011;68544;45.566;10.238;2023-09-19T02:12:51;11.93;;;4.63;;
79137;SDS011;68544;45.566;10.238;2023-09-19T02:15:16;10.38;;;4.80;;
79137;SDS011;68544;45.566;10.238;2023-09-19T02:17:45;11.20;;;4.47;;
79137;SDS011;68544;45.566;10.238;2023-09-19T02:20:11;10.55;;;4.30;;
79137;SDS011;68544;45.566;10.238;2023-09-19T02:22:40;15.98;;;4.80;;
79137;SDS011;68544;45.566;10.238;2023-09-19T02:25:07;9.85;;;4.50;;
79137;SDS011;68544;45.566;10.238;2023-09-19T02:27:33;11.40;;;4.85;;
79137;SDS011;68544;45.566;10.238;2023-09-19T02:29:59;12.23;;;4.55;;
79137;SDS011;68544;45.566;10.238;2023-09-19T02:32:27;13.30;;;4.95;;
79137;SDS011;68544;45.566;10.238;2023-09-19T02:34:55;15.88;;;5.55;;
79137;SDS011;68544;45.566;10.238;2023-09-19T02:37:20;9.90;;;4.45;;
79137;SDS011;68544;45.566;10.238;2023-09-19T02:39:46;11.38;;;4.60;;
79137;SDS011;68544;45.566;10.238;2023-09-19T02:42:11;11.02;;;4.78;;
79137;SDS011;68544;45.566;10.238;2023-09-19T02:44:36;11.45;;;4.55;;
79137;SDS011;68544;45.566;10.238;2023-09-19T02:49:28;13.82;;;5.15;;
79137;SDS011;68544;45.566;10.238;2023-09-19T02:51:53;15.05;;;4.93;;
79137;SDS011;68544;45.566;10.238;2023-09-19T02:54:19;10.55;;;4.57;;
79137;SDS011;68544;45.566;10.238;2023-09-19T02:56:45;11.90;;;5.00;;
79137;SDS011;68544;45.566;10.238;2023-09-19T02:59:10;10.23;;;4.07;;
79137;SDS011;68544;45.566;10.238;2023-09-19T03:01:36;15.25;;;5.10;;
79137;SDS011;68544;45.566;10.238;2023-09-19T03:04:03;11.75;;;4.90;;
79137;SDS011;68544;45.566;10.238;2023-09-19T03:06:31;11.15;;;4.40;;
79137;SDS011;68544;45.566;10.238;2023-09-19T03:08:56;11.73;;;4.70;;
79137;SDS011;68544;45.566;10.238;2023-09-19T03:11:22;15.30;;;5.47;;
79137;SDS011;68544;45.566;10.238;2023-09-19T03:16:19;10.07;;;4.65;;
79137;SDS011;68544;45.566;10.238;2023-09-19T03:18:47;8.80;;;4.20;;
79137;SDS011;68544;45.566;10.238;2023-09-19T03:21:13;10.65;;;5.30;;
79137;SDS011;68544;45.566;10.238;2023-09-19T03:23:40;12.85;;;4.63;;
79137;SDS011;68544;45.566;10.238;2023-09-19T03:26:05;10.40;;;4.93;;
79137;SDS011;68544;45.566;10.238;2023-09-19T03:28:32;12.80;;;4.82;;
79137;SDS011;68544;45.566;10.238;2023-09-19T03:31:02;12.30;;;4.70;;
79137;SDS011;68544;45.566;10.238;2023-09-19T03:33:29;11.52;;;4.95;;
79137;SDS011;68544;45.566;10.238;2023-09-19T03:35:56;12.48;;;5.07;;
79137;SDS011;68544;45.566;10.238;2023-09-19T03:38:24;13.77;;;5.55;;
79137;SDS011;68544;45.566;10.238;2023-09-19T03:40:50;11.40;;;5.15;;
79137;SDS011;68544;45.566;10.238;2023-09-19T03:43:15;13.57;;;4.47;;
79137;SDS011;68544;45.566;10.238;2023-09-19T03:45:41;10.93;;;4.30;;
79137;SDS011;68544;45.566;10.238;2023-09-19T03:48:09;16.23;;;4.90;;
79137;SDS011;68544;45.566;10.238;2023-09-19T03:50:35;12.25;;;5.30;;
79137;SDS011;68544;45.566;10.238;2023-09-19T03:53:00;11.50;;;4.70;;
79137;SDS011;68544;45.566;10.238;2023-09-19T03:55:25;13.40;;;4.50;;
79137;SDS011;68544;45.566;10.238;2023-09-19T03:57:51;14.73;;;5.25;;
79137;SDS011;68544;45.566;10.238;2023-09-19T04:00:17;12.65;;;5.47;;
79137;SDS011;68544;45.566;10.238;2023-09-19T04:02:46;10.45;;;5.22;;
79137;SDS011;68544;45.566;10.238;2023-09-19T04:05:11;7.70;;;4.50;;
79137;SDS011;68544;45.566;10.238;2023-09-19T04:07:36;12.60;;;4.80;;
79137;SDS011;68544;45.566;10.238;2023-09-19T04:10:02;11.77;;;4.60;;
79137;SDS011;68544;45.566;10.238;2023-09-19T04:12:28;10.55;;;4.75;;
79137;SDS011;68544;45.566;10.238;2023-09-19T04:14:53;12.40;;;5.05;;
79137;SDS011;68544;45.566;10.238;2023-09-19T04:17:18;16.27;;;5.23;;
79137;SDS011;68544;45.566;10.238;2023-09-19T04:19:44;10.47;;;4.33;;
79137;SDS011;68544;45.566;10.238;2023-09-19T04:22:10;12.60;;;5.07;;
79137;SDS011;68544;45.566;10.238;2023-09-19T04:24:36;11.75;;;4.82;;
79137;SDS011;68544;45.566;10.238;2023-09-19T04:27:03;12.18;;;5.03;;
79137;SDS011;68544;45.566;10.238;2023-09-19T04:29:28;7.78;;;4.10;;
79137;SDS011;68544;45.566;10.238;2023-09-19T04:31:54;12.15;;;4.80;;
79137;SDS011;68544;45.566;10.238;2023-09-19T04:34:19;12.10;;;4.97;;
79137;SDS011;68544;45.566;10.238;2023-09-19T04:36:44;10.47;;;5.07;;
79137;SDS011;68544;45.566;10.238;2023-09-19T04:39:10;8.90;;;4.70;;
79137;SDS011;68544;45.566;10.238;2023-09-19T04:41:37;10.30;;;5.15;;
79137;SDS011;68544;45.566;10.238;2023-09-19T04:44:05;13.43;;;5.00;;
79137;SDS011;68544;45.566;10.238;2023-09-19T04:46:31;13.68;;;4.30;;
79137;SDS011;68544;45.566;10.238;2023-09-19T04:48:56;9.27;;;4.75;;
79137;SDS011;68544;45.566;10.238;2023-09-19T04:51:21;11.00;;;5.25;;
79137;SDS011;68544;45.566;10.238;2023-09-19T04:53:47;12.13;;;4.87;;
79137;SDS011;68544;45.566;10.238;2023-09-19T04:56:13;12.50;;;5.28;;
79137;SDS011;68544;45.566;10.238;2023-09-19T04:58:38;11.23;;;5.07;;
79137;SDS011;68544;45.566;10.238;2023-09-19T05:01:03;12.05;;;5.25;;
79137;SDS011;68544;45.566;10.238;2023-09-19T05:03:29;13.23;;;4.97;;
79137;SDS011;68544;45.566;10.238;2023-09-19T05:05:54;14.73;;;5.78;;
79137;SDS011;68544;45.566;10.238;2023-09-19T05:08:20;14.17;;;5.27;;
79137;SDS011;68544;45.566;10.238;2023-09-19T05:10:47;13.30;;;5.30;;
79137;SDS011;68544;45.566;10.238;2023-09-19T05:13:12;12.25;;;5.22;;
79137;SDS011;68544;45.566;10.238;2023-09-19T05:15:38;10.73;;;4.82;;
79137;SDS011;68544;45.566;10.238;2023-09-19T05:18:04;10.43;;;4.72;;
79137;SDS011;68544;45.566;10.238;2023-09-19T05:20:30;11.85;;;5.22;;
79137;SDS011;68544;45.566;10.238;2023-09-19T05:22:58;11.30;;;5.40;;
79137;SDS011;68544;45.566;10.238;2023-09-19T05:25:31;14.95;;;5.55;;
79137;SDS011;68544;45.566;10.238;2023-09-19T05:27:57;11.05;;;4.75;;
79137;SDS011;68544;45.566;10.238;2023-09-19T05:30:24;12.23;;;5.00;;
79137;SDS011;68544;45.566;10.238;2023-09-19T05:32:52;9.82;;;4.78;;
79137;SDS011;68544;45.566;10.238;2023-09-19T05:35:17;12.50;;;5.07;;
79137;SDS011;68544;45.566;10.238;2023-09-19T05:37:43;13.63;;;5.00;;
79137;SDS011;68544;45.566;10.238;2023-09-19T05:40:09;13.95;;;5.70;;
79137;SDS011;68544;45.566;10.238;2023-09-19T05:42:37;13.18;;;4.90;;
79137;SDS011;68544;45.566;10.238;2023-09-19T05:45:04;12.82;;;4.80;;
79137;SDS011;68544;45.566;10.238;2023-09-19T05:47:31;12.65;;;5.20;;
79137;SDS011;68544;45.566;10.238;2023-09-19T05:49:57;12.57;;;5.13;;
79137;SDS011;68544;45.566;10.238;2023-09-19T05:52:22;15.63;;;5.07;;
79137;SDS011;68544;45.566;10.238;2023-09-19T05:54:48;13.10;;;5.05;;
79137;SDS011;68544;45.566;10.238;2023-09-19T05:57:14;13.85;;;5.50;;
79137;SDS011;68544;45.566;10.238;2023-09-19T05:59:40;14.48;;;6.18;;
79137;SDS011;68544;45.566;10.238;2023-09-19T06:02:07;12.32;;;5.53;;
79137;SDS011;68544;45.566;10.238;2023-09-19T06:04:34;11.52;;;5.53;;
79137;SDS011;68544;45.566;10.238;2023-09-19T06:07:00;11.35;;;5.93;;
79137;SDS011;68544;45.566;10.238;2023-09-19T06:09:25;12.27;;;5.43;;
79137;SDS011;68544;45.566;10.238;2023-09-19T06:11:52;14.95;;;5.43;;
79137;SDS011;68544;45.566;10.238;2023-09-19T06:14:18;13.85;;;4.93;;
79137;SDS011;68544;45.566;10.238;2023-09-19T06:16:44;14.07;;;5.50;;
79137;SDS011;68544;45.566;10.238;2023-09-19T06:21:35;11.67;;;5.33;;
79137;SDS011;68544;45.566;10.238;2023-09-19T06:24:01;10.93;;;4.90;;
79137;SDS011;68544;45.566;10.238;2023-09-19T06:26:27;10.98;;;4.88;;
79137;SDS011;68544;45.566;10.238;2023-09-19T06:31:20;11.23;;;5.07;;
79137;SDS011;68544;45.566;10.238;2023-09-19T06:33:47;15.05;;;5.13;;
79137;SDS011;68544;45.566;10.238;2023-09-19T06:36:13;12.82;;;4.68;;
79137;SDS011;68544;45.566;10.238;2023-09-19T06:38:40;10.52;;;4.85;;
79137;SDS011;68544;45.566;10.238;2023-09-19T06:41:06;12.18;;;5.22;;
79137;SDS011;68544;45.566;10.238;2023-09-19T06:43:33;13.52;;;5.10;;
79137;SDS011;68544;45.566;10.238;2023-09-19T06:46:02;11.13;;;5.18;;
79137;SDS011;68544;45.566;10.238;2023-09-19T06:48:27;12.82;;;5.05;;
79137;SDS011;68544;45.566;10.238;2023-09-19T06:50:54;12.02;;;4.80;;
79137;SDS011;68544;45.566;10.238;2023-09-19T06:53:20;17.55;;;4.80;;
79137;SDS011;68544;45.566;10.238;2023-09-19T06:55:45;9.88;;;4.30;;
79137;SDS011;68544;45.566;10.238;2023-09-19T06:58:12;13.77;;;5.35;;
79137;SDS011;68544;45.566;10.238;2023-09-19T07:00:38;10.98;;;5.25;;
79137;SDS011;68544;45.566;10.238;2023-09-19T07:03:06;13.45;;;4.63;;
79137;SDS011;68544;45.566;10.238;2023-09-19T07:05:38;9.10;;;4.35;;
79137;SDS011;68544;45.566;10.238;2023-09-19T07:08:05;13.02;;;4.75;;
79137;SDS011;68544;45.566;10.238;2023-09-19T07:10:32;9.30;;;4.53;;
79137;SDS011;68544;45.566;10.238;2023-09-19T07:13:05;11.60;;;4.53;;
79137;SDS011;68544;45.566;10.238;2023-09-19T07:15:36;8.55;;;4.05;;
79137;SDS011;68544;45.566;10.238;2023-09-19T07:18:05;8.65;;;3.78;;
79137;SDS011;68544;45.566;10.238;2023-09-19T07:20:31;11.65;;;4.20;;
79137;SDS011;68544;45.566;10.238;2023-09-19T07:22:58;10.57;;;4.43;;
79137;SDS011;68544;45.566;10.238;2023-09-19T07:25:29;9.65;;;3.88;;
79137;SDS011;68544;45.566;10.238;2023-09-19T07:27:55;15.77;;;4.88;;
79137;SDS011;68544;45.566;10.238;2023-09-19T07:30:21;11.30;;;4.05;;
79137;SDS011;68544;45.566;10.238;2023-09-19T07:35:12;12.48;;;4.82;;
79137;SDS011;68544;45.566;10.238;2023-09-19T07:40:03;10.18;;;4.40;;
79137;SDS011;68544;45.566;10.238;2023-09-19T07:42:32;13.80;;;4.85;;
79137;SDS011;68544;45.566;10.238;2023-09-19T07:45:00;12.82;;;4.75;;
79137;SDS011;68544;45.566;10.238;2023-09-19T07:49:51;10.55;;;4.55;;
79137;SDS011;68544;45.566;10.238;2023-09-19T07:54:41;9.60;;;3.83;;
79137;SDS011;68544;45.566;10.238;2023-09-19T07:57:09;10.43;;;4.20;;
79137;SDS011;68544;45.566;10.238;2023-09-19T08:02:01;14.10;;;4.90;;
79137;SDS011;68544;45.566;10.238;2023-09-19T08:04:29;18.15;;;3.67;;
79137;SDS011;68544;45.566;10.238;2023-09-19T08:06:57;8.70;;;3.53;;
79137;SDS011;68544;45.566;10.238;2023-09-19T08:09:25;8.18;;;3.60;;
79137;SDS011;68544;45.566;10.238;2023-09-19T08:11:51;8.32;;;3.60;;
79137;SDS011;68544;45.566;10.238;2023-09-19T08:14:16;8.00;;;3.08;;
79137;SDS011;68544;45.566;10.238;2023-09-19T08:16:42;10.10;;;3.50;;
79137;SDS011;68544;45.566;10.238;2023-09-19T08:19:10;8.27;;;3.28;;
79137;SDS011;68544;45.566;10.238;2023-09-19T08:21:36;8.52;;;3.78;;
79137;SDS011;68544;45.566;10.238;2023-09-19T08:24:01;8.57;;;3.83;;
79137;SDS011;68544;45.566;10.238;2023-09-19T08:26:29;11.52;;;3.90;;
79137;SDS011;68544;45.566;10.238;2023-09-19T08:28:55;9.68;;;3.80;;
79137;SDS011;68544;45.566;10.238;2023-09-19T08:31:21;9.55;;;4.25;;
79137;SDS011;68544;45.566;10.238;2023-09-19T08:33:47;10.68;;;3.55;;
79137;SDS011;68544;45.566;10.238;2023-09-19T08:36:14;11.85;;;3.60;;
79137;SDS011;68544;45.566;10.238;2023-09-19T08:38:40;12.15;;;4.07;;
79137;SDS011;68544;45.566;10.238;2023-09-19T08:41:06;14.95;;;3.85;;
79137;SDS011;68544;45.566;10.238;2023-09-19T08:43:35;14.23;;;4.80;;
79137;SDS011;68544;45.566;10.238;2023-09-19T08:46:09;10.48;;;3.83;;
79137;SDS011;68544;45.566;10.238;2023-09-19T08:48:46;13.23;;;4.05;;
79137;SDS011;68544;45.566;10.238;2023-09-19T08:51:26;13.90;;;4.22;;
79137;SDS011;68544;45.566;10.238;2023-09-19T08:53:58;11.55;;;4.90;;
79137;SDS011;68544;45.566;10.238;2023-09-19T08:59:04;11.50;;;3.90;;
79137;SDS011;68544;45.566;10.238;2023-09-19T09:01:32;8.95;;;3.60;;
79137;SDS011;68544;45.566;10.238;2023-09-19T09:03:58;8.88;;;3.60;;
79137;SDS011;68544;45.566;10.238;2023-09-19T09:06:24;10.40;;;3.88;;
79137;SDS011;68544;45.566;10.238;2023-09-19T09:08:51;10.02;;;3.72;;
79137;SDS011;68544;45.566;10.238;2023-09-19T09:11:17;11.07;;;4.15;;
79137;SDS011;68544;45.566;10.238;2023-09-19T09:13:44;12.00;;;4.03;;
79137;SDS011;68544;45.566;10.238;2023-09-19T09:16:11;9.10;;;3.80;;
79137;SDS011;68544;45.566;10.238;2023-09-19T09:18:38;8.77;;;3.72;;
79137;SDS011;68544;45.566;10.238;2023-09-19T09:21:04;12.38;;;4.15;;
79137;SDS011;68544;45.566;10.238;2023-09-19T09:23:29;10.60;;;3.75;;
79137;SDS011;68544;45.566;10.238;2023-09-19T09:25:57;10.23;;;4.22;;
79137;SDS011;68544;45.566;10.238;2023-09-19T09:28:27;7.82;;;3.47;;
79137;SDS011;68544;45.566;10.238;2023-09-19T09:30:54;9.38;;;4.30;;
79137;SDS011;68544;45.566;10.238;2023-09-19T09:33:20;10.40;;;3.88;;
79137;SDS011;68544;45.566;10.238;2023-09-19T09:35:56;9.57;;;4.07;;
79137;SDS011;68544;45.566;10.238;2023-09-19T09:38:27;8.68;;;4.35;;
79137;SDS011;68544;45.566;10.238;2023-09-19T09:41:13;11.52;;;4.57;;
79137;SDS011;68544;45.566;10.238;2023-09-19T09:43:52;11.13;;;4.80;;
79137;SDS011;68544;45.566;10.238;2023-09-19T09:46:19;13.75;;;4.68;;
79137;SDS011;68544;45.566;10.238;2023-09-19T09:51:38;8.27;;;4.10;;
79137;SDS011;68544;45.566;10.238;2023-09-19T09:54:24;11.68;;;4.38;;
79137;SDS011;68544;45.566;10.238;2023-09-19T09:56:54;11.25;;;4.47;;
79137;SDS011;68544;45.566;10.238;2023-09-19T09:59:43;11.85;;;5.25;;
79137;SDS011;68544;45.566;10.238;2023-09-19T10:02:24;12.20;;;4.53;;
79137;SDS011;68544;45.566;10.238;2023-09-19T10:04:54;9.32;;;4.20;;
79137;SDS011;68544;45.566;10.238;2023-09-19T10:07:29;9.75;;;4.68;;
79137;SDS011;68544;45.566;10.238;2023-09-19T10:10:02;9.30;;;4.40;;
79137;SDS011;68544;45.566;10.238;2023-09-19T10:12:45;11.23;;;4.93;;
79137;SDS011;68544;45.566;10.238;2023-09-19T10:15:13;11.15;;;4.97;;
79137;SDS011;68544;45.566;10.238;2023-09-19T10:17:42;9.05;;;4.55;;
79137;SDS011;68544;45.566;10.238;2023-09-19T10:20:11;12.27;;;4.50;;
79137;SDS011;68544;45.566;10.238;2023-09-19T10:22:47;11.93;;;5.15;;
79137;SDS011;68544;45.566;10.238;2023-09-19T10:25:22;8.88;;;4.10;;
79137;SDS011;68544;45.566;10.238;2023-09-19T10:27:50;9.80;;;4.82;;
79137;SDS011;68544;45.566;10.238;2023-09-19T10:30:20;9.05;;;4.60;;
79137;SDS011;68544;45.566;10.238;2023-09-19T10:32:50;9.02;;;5.13;;
79137;SDS011;68544;45.566;10.238;2023-09-19T10:35:22;11.32;;;5.03;;
79137;SDS011;68544;45.566;10.238;2023-09-19T10:37:49;9.70;;;5.30;;
79137;SDS011;68544;45.566;10.238;2023-09-19T10:40:16;8.82;;;4.85;;
79137;SDS011;68544;45.566;10.238;2023-09-19T10:42:45;9.52;;;4.80;;
79137;SDS011;68544;45.566;10.238;2023-09-19T10:45:13;10.43;;;4.80;;
79137;SDS011;68544;45.566;10.238;2023-09-19T10:47:45;11.32;;;4.82;;
79137;SDS011;68544;45.566;10.238;2023-09-19T10:50:19;9.88;;;5.13;;
79137;SDS011;68544;45.566;10.238;2023-09-19T10:52:47;11.02;;;6.07;;
79137;SDS011;68544;45.566;10.238;2023-09-19T10:55:18;11.20;;;5.50;;
79137;SDS011;68544;45.566;10.238;2023-09-19T10:57:47;10.15;;;5.00;;
79137;SDS011;68544;45.566;10.238;2023-09-19T11:00:13;10.77;;;5.97;;
79137;SDS011;68544;45.566;10.238;2023-09-19T11:25:59;7.72;;;5.45;;
79137;SDS011;68544;45.566;10.238;2023-09-19T11:30:42;11.25;;;6.00;;
79137;SDS011;68544;45.566;10.238;2023-09-19T11:33:17;11.65;;;5.57;;
79137;SDS011;68544;45.566;10.238;2023-09-19T11:36:06;10.10;;;5.00;;
79137;SDS011;68544;45.566;10.238;2023-09-19T11:49:15;9.95;;;5.80;;
79137;SDS011;68544;45.566;10.238;2023-09-19T11:51:46;14.27;;;5.90;;
79137;SDS011;68544;45.566;10.238;2023-09-19T11:54:13;8.05;;;4.80;;
79137;SDS011;68544;45.566;10.238;2023-09-19T11:56:43;9.13;;;5.03;;
79137;SDS011;68544;45.566;10.238;2023-09-19T11:59:10;11.15;;;5.60;;
79137;SDS011;68544;45.566;10.238;2023-09-19T12:01:37;7.97;;;5.30;;
79137;SDS011;68544;45.566;10.238;2023-09-19T12:04:08;10.90;;;6.43;;
79137;SDS011;68544;45.566;10.238;2023-09-19T12:06:37;10.32;;;5.38;;
79137;SDS011;68544;45.566;10.238;2023-09-19T12:09:07;8.90;;;5.65;;
79137;SDS011;68544;45.566;10.238;2023-09-19T12:11:40;9.18;;;4.80;;
79137;SDS011;68544;45.566;10.238;2023-09-19T12:14:08;7.47;;;4.30;;
79137;SDS011;68544;45.566;10.238;2023-09-19T12:16:34;10.20;;;4.50;;
79137;SDS011;68544;45.566;10.238;2023-09-19T12:19:17;11.43;;;4.70;;
79137;SDS011;68544;45.566;10.238;2023-09-19T12:21:52;11.30;;;4.90;;
79137;SDS011;68544;45.566;10.238;2023-09-19T12:24:19;10.82;;;4.40;;
79137;SDS011;68544;45.566;10.238;2023-09-19T12:26:45;10.45;;;5.20;;
79137;SDS011;68544;45.566;10.238;2023-09-19T12:29:17;10.38;;;5.03;;
79137;SDS011;68544;45.566;10.238;2023-09-19T12:31:48;12.13;;;4.25;;
79137;SDS011;68544;45.566;10.238;2023-09-19T12:34:22;7.93;;;4.68;;
79137;SDS011;68544;45.566;10.238;2023-09-19T12:36:48;9.00;;;4.85;;
79137;SDS011;68544;45.566;10.238;2023-09-19T12:39:23;7.90;;;4.30;;
79137;SDS011;68544;45.566;10.238;2023-09-19T12:41:50;8.80;;;4.55;;
79137;SDS011;68544;45.566;10.238;2023-09-19T12:44:18;12.90;;;4.95;;
79137;SDS011;68544;45.566;10.238;2023-09-19T12:46:44;9.70;;;4.90;;
79137;SDS011;68544;45.566;10.238;2023-09-19T12:49:16;10.35;;;4.70;;
79137;SDS011;68544;45.566;10.238;2023-09-19T12:51:42;11.70;;;5.82;;
79137;SDS011;68544;45.566;10.238;2023-09-19T12:54:11;11.07;;;4.78;;
79137;SDS011;68544;45.566;10.238;2023-09-19T12:56:39;8.73;;;4.45;;
79137;SDS011;68544;45.566;10.238;2023-09-19T12:59:09;9.65;;;5.00;;
79137;SDS011;68544;45.566;10.238;2023-09-19T13:01:38;8.88;;;4.90;;
79137;SDS011;68544;45.566;10.238;2023-09-19T13:06:47;9.00;;;4.72;;
79137;SDS011;68544;45.566;10.238;2023-09-19T13:09:14;13.18;;;6.20;;
79137;SDS011;68544;45.566;10.238;2023-09-19T13:11:40;8.57;;;4.90;;
79137;SDS011;68544;45.566;10.238;2023-09-19T13:14:14;9.95;;;4.75;;
79137;SDS011;68544;45.566;10.238;2023-09-19T13:17:00;12.55;;;4.55;;
79137;SDS011;68544;45.566;10.238;2023-09-19T13:19:39;14.35;;;4.82;;
79137;SDS011;68544;45.566;10.238;2023-09-19T13:22:36;10.88;;;6.07;;
79137;SDS011;68544;45.566;10.238;2023-09-19T13:25:04;9.43;;;5.20;;
79137;SDS011;68544;45.566;10.238;2023-09-19T13:27:33;11.98;;;5.25;;
79137;SDS011;68544;45.566;10.238;2023-09-19T13:29:59;13.48;;;5.22;;
79137;SDS011;68544;45.566;10.238;2023-09-19T13:32:25;14.38;;;6.25;;
79137;SDS011;68544;45.566;10.238;2023-09-19T13:34:50;9.98;;;6.22;;
79137;SDS011;68544;45.566;10.238;2023-09-19T13:37:16;12.18;;;7.40;;
79137;SDS011;68544;45.566;10.238;2023-09-19T13:39:43;10.90;;;8.40;;
79137;SDS011;68544;45.566;10.238;2023-09-19T13:42:12;12.32;;;7.10;;
79137;SDS011;68544;45.566;10.238;2023-09-19T13:44:38;9.30;;;6.28;;
79137;SDS011;68544;45.566;10.238;2023-09-19T13:47:03;11.45;;;7.03;;
79137;SDS011;68544;45.566;10.238;2023-09-19T13:49:34;10.18;;;6.10;;
79137;SDS011;68544;45.566;10.238;2023-09-19T13:52:00;9.23;;;5.75;;
79137;SDS011;68544;45.566;10.238;2023-09-19T13:54:28;12.40;;;5.82;;
79137;SDS011;68544;45.566;10.238;2023-09-19T13:56:53;8.93;;;5.47;;
79137;SDS011;68544;45.566;10.238;2023-09-19T13:59:19;11.65;;;6.50;;
79137;SDS011;68544;45.566;10.238;2023-09-19T14:01:48;11.65;;;7.30;;
79137;SDS011;68544;45.566;10.238;2023-09-19T14:04:14;12.88;;;8.05;;
79137;SDS011;68544;45.566;10.238;2023-09-19T14:06:41;8.85;;;6.35;;
79137;SDS011;68544;45.566;10.238;2023-09-19T14:09:07;9.65;;;7.47;;
79137;SDS011;68544;45.566;10.238;2023-09-19T14:11:33;11.75;;;6.70;;
79137;SDS011;68544;45.566;10.238;2023-09-19T14:13:58;8.80;;;5.57;;
79137;SDS011;68544;45.566;10.238;2023-09-19T14:16:24;12.10;;;6.53;;
79137;SDS011;68544;45.566;10.238;2023-09-19T14:18:49;9.80;;;7.30;;
79137;SDS011;68544;45.566;10.238;2023-09-19T14:21:15;10.73;;;6.97;;
79137;SDS011;68544;45.566;10.238;2023-09-19T14:23:40;11.95;;;5.95;;
79137;SDS011;68544;45.566;10.238;2023-09-19T14:26:07;12.65;;;7.22;;
79137;SDS011;68544;45.566;10.238;2023-09-19T14:28:33;13.40;;;7.00;;
79137;SDS011;68544;45.566;10.238;2023-09-19T14:31:05;10.27;;;5.90;;
79137;SDS011;68544;45.566;10.238;2023-09-19T14:33:33;7.78;;;5.45;;
79137;SDS011;68544;45.566;10.238;2023-09-19T14:36:01;9.50;;;6.95;;
79137;SDS011;68544;45.566;10.238;2023-09-19T14:38:28;12.02;;;7.43;;
79137;SDS011;68544;45.566;10.238;2023-09-19T14:41:00;7.85;;;6.30;;
79137;SDS011;68544;45.566;10.238;2023-09-19T14:43:26;11.18;;;6.18;;
79137;SDS011;68544;45.566;10.238;2023-09-19T14:45:54;13.43;;;5.32;;
79137;SDS011;68544;45.566;10.238;2023-09-19T14:48:19;12.18;;;6.10;;
79137;SDS011;68544;45.566;10.238;2023-09-19T14:50:44;10.63;;;7.15;;
79137;SDS011;68544;45.566;10.238;2023-09-19T14:53:10;11.30;;;5.88;;
79137;SDS011;68544;45.566;10.238;2023-09-19T14:55:37;8.85;;;4.97;;
79137;SDS011;68544;45.566;10.238;2023-09-19T14:58:06;11.65;;;5.75;;
79137;SDS011;68544;45.566;10.238;2023-09-19T15:00:32;9.15;;;6.03;;
79137;SDS011;68544;45.566;10.238;2023-09-19T15:02:59;8.98;;;6.18;;
79137;SDS011;68544;45.566;10.238;2023-09-19T15:05:24;8.50;;;5.75;;
79137;SDS011;68544;45.566;10.238;2023-09-19T15:07:50;10.50;;;5.60;;
79137;SDS011;68544;45.566;10.238;2023-09-19T15:10:15;9.70;;;5.20;;
79137;SDS011;68544;45.566;10.238;2023-09-19T15:12:41;11.13;;;5.90;;
79137;SDS011;68544;45.566;10.238;2023-09-19T15:15:07;10.77;;;5.32;;
79137;SDS011;68544;45.566;10.238;2023-09-19T15:17:33;9.43;;;4.85;;
79137;SDS011;68544;45.566;10.238;2023-09-19T15:20:00;8.52;;;5.20;;
79137;SDS011;68544;45.566;10.238;2023-09-19T15:22:31;8.00;;;5.25;;
79137;SDS011;68544;45.566;10.238;2023-09-19T15:24:56;8.65;;;5.00;;
79137;SDS011;68544;45.566;10.238;2023-09-19T15:27:22;8.52;;;5.25;;
79137;SDS011;68544;45.566;10.238;2023-09-19T15:29:47;11.00;;;4.72;;
79137;SDS011;68544;45.566;10.238;2023-09-19T15:32:12;13.80;;;5.93;;
79137;SDS011;68544;45.566;10.238;2023-09-19T15:34:38;12.88;;;6.10;;
79137;SDS011;68544;45.566;10.238;2023-09-19T15:37:03;10.63;;;6.15;;
79137;SDS011;68544;45.566;10.238;2023-09-19T15:39:31;10.52;;;5.20;;
79137;SDS011;68544;45.566;10.238;2023-09-19T15:42:01;10.07;;;4.72;;
79137;SDS011;68544;45.566;10.238;2023-09-19T15:44:27;9.95;;;5.82;;
79137;SDS011;68544;45.566;10.238;2023-09-19T15:46:52;9.35;;;5.20;;
79137;SDS011;68544;45.566;10.238;2023-09-19T15:49:18;11.90;;;5.40;;
79137;SDS011;68544;45.566;10.238;2023-09-19T15:51:43;8.15;;;5.07;;
79137;SDS011;68544;45.566;10.238;2023-09-19T15:54:10;6.75;;;4.32;;
79137;SDS011;68544;45.566;10.238;2023-09-19T15:56:38;9.23;;;4.95;;
79137;SDS011;68544;45.566;10.238;2023-09-19T15:59:06;8.23;;;4.63;;
79137;SDS011;68544;45.566;10.238;2023-09-19T16:01:31;6.82;;;3.53;;
79137;SDS011;68544;45.566;10.238;2023-09-19T16:03:57;7.22;;;3.85;;
79137;SDS011;68544;45.566;10.238;2023-09-19T16:06:27;6.82;;;3.83;;
79137;SDS011;68544;45.566;10.238;2023-09-19T16:08:54;7.03;;;3.92;;
79137;SDS011;68544;45.566;10.238;2023-09-19T16:11:23;7.40;;;3.85;;
79137;SDS011;68544;45.566;10.238;2023-09-19T16:13:50;9.35;;;3.67;;
79137;SDS011;68544;45.566;10.238;2023-09-19T16:16:17;7.45;;;2.95;;